sensor_id;sensor_type;location;lat;lon;timestamp;P1;durP1;ratioP1;P2;durP2;ratioP2
64936;SDS011;51452;47.698;19.050;2023-07-13T00:01:59;9.93;;;3.75;;
64936;SDS011;51452;47.698;19.050;2023-07-13T00:04:25;8.32;;;3.55;;
64936;SDS011;51452;47.698;19.050;2023-07-13T00:06:51;9.93;;;3.25;;
64936;SDS011;51452;47.698;19.050;2023-07-13T00:09:17;4.88;;;2.47;;
64936;SDS011;51452;47.698;19.050;2023-07-13T00:11:44;3.30;;;2.50;;
64936;SDS011;51452;47.698;19.050;2023-07-13T00:14:09;5.60;;;2.28;;
64936;SDS011;51452;47.698;19.050;2023-07-13T00:16:36;8.35;;;2.58;;
64936;SDS011;51452;47.698;19.050;2023-07-13T00:19:04;4.13;;;2.40;;
64936;SDS011;51452;47.698;19.050;2023-07-13T00:21:30;5.90;;;2.10;;
64936;SDS011;51452;47.698;19.050;2023-07-13T00:23:56;4.10;;;1.83;;
64936;SDS011;51452;47.698;19.050;2023-07-13T00:26:22;4.45;;;1.90;;
64936;SDS011;51452;47.698;19.050;2023-07-13T00:28:47;2.58;;;1.70;;
64936;SDS011;51452;47.698;19.050;2023-07-13T00:31:13;3.67;;;1.75;;
64936;SDS011;51452;47.698;19.050;2023-07-13T00:33:42;4.22;;;2.08;;
64936;SDS011;51452;47.698;19.050;2023-07-13T00:36:08;4.32;;;2.00;;
64936;SDS011;51452;47.698;19.050;2023-07-13T00:38:35;3.85;;;2.28;;
64936;SDS011;51452;47.698;19.050;2023-07-13T00:41:00;5.97;;;2.53;;
64936;SDS011;51452;47.698;19.050;2023-07-13T00:43:28;4.63;;;2.40;;
64936;SDS011;51452;47.698;19.050;2023-07-13T00:48:24;4.95;;;2.28;;
64936;SDS011;51452;47.698;19.050;2023-07-13T00:50:55;7.75;;;3.70;;
64936;SDS011;51452;47.698;19.050;2023-07-13T00:53:23;6.38;;;3.47;;
64936;SDS011;51452;47.698;19.050;2023-07-13T00:55:51;6.70;;;3.40;;
64936;SDS011;51452;47.698;19.050;2023-07-13T00:58:18;5.03;;;3.00;;
64936;SDS011;51452;47.698;19.050;2023-07-13T01:00:44;3.92;;;2.55;;
64936;SDS011;51452;47.698;19.050;2023-07-13T01:03:12;6.10;;;2.60;;
64936;SDS011;51452;47.698;19.050;2023-07-13T01:05:37;15.10;;;2.33;;
64936;SDS011;51452;47.698;19.050;2023-07-13T01:08:04;3.88;;;2.20;;
64936;SDS011;51452;47.698;19.050;2023-07-13T01:10:30;4.15;;;2.28;;
64936;SDS011;51452;47.698;19.050;2023-07-13T01:13:03;2.40;;;1.77;;
64936;SDS011;51452;47.698;19.050;2023-07-13T01:18:02;2.95;;;2.05;;
64936;SDS011;51452;47.698;19.050;2023-07-13T01:20:52;4.05;;;2.40;;
64936;SDS011;51452;47.698;19.050;2023-07-13T01:23:17;3.78;;;1.98;;
64936;SDS011;51452;47.698;19.050;2023-07-13T01:25:44;4.68;;;2.20;;
64936;SDS011;51452;47.698;19.050;2023-07-13T01:28:10;2.20;;;1.50;;
64936;SDS011;51452;47.698;19.050;2023-07-13T01:30:36;2.53;;;1.67;;
64936;SDS011;51452;47.698;19.050;2023-07-13T01:33:04;2.08;;;1.30;;
64936;SDS011;51452;47.698;19.050;2023-07-13T01:35:34;2.22;;;1.30;;
64936;SDS011;51452;47.698;19.050;2023-07-13T01:38:00;3.38;;;1.67;;
64936;SDS011;51452;47.698;19.050;2023-07-13T01:40:27;1.98;;;1.50;;
64936;SDS011;51452;47.698;19.050;2023-07-13T01:42:52;3.35;;;1.15;;
64936;SDS011;51452;47.698;19.050;2023-07-13T01:45:18;3.60;;;1.60;;
64936;SDS011;51452;47.698;19.050;2023-07-13T01:47:43;3.22;;;0.80;;
64936;SDS011;51452;47.698;19.050;2023-07-13T01:50:09;2.83;;;1.20;;
64936;SDS011;51452;47.698;19.050;2023-07-13T01:52:35;2.10;;;1.20;;
64936;SDS011;51452;47.698;19.050;2023-07-13T01:55:00;2.17;;;1.35;;
64936;SDS011;51452;47.698;19.050;2023-07-13T01:57:26;2.15;;;1.20;;
64936;SDS011;51452;47.698;19.050;2023-07-13T01:59:51;2.42;;;1.30;;
64936;SDS011;51452;47.698;19.050;2023-07-13T02:02:17;2.53;;;1.50;;
64936;SDS011;51452;47.698;19.050;2023-07-13T02:04:42;4.15;;;1.30;;
64936;SDS011;51452;47.698;19.050;2023-07-13T02:07:08;1.77;;;1.30;;
64936;SDS011;51452;47.698;19.050;2023-07-13T02:09:34;2.35;;;1.13;;
64936;SDS011;51452;47.698;19.050;2023-07-13T02:11:59;3.00;;;1.35;;
64936;SDS011;51452;47.698;19.050;2023-07-13T02:14:24;2.85;;;1.25;;
64936;SDS011;51452;47.698;19.050;2023-07-13T02:16:50;5.82;;;1.40;;
64936;SDS011;51452;47.698;19.050;2023-07-13T02:19:15;3.47;;;1.80;;
64936;SDS011;51452;47.698;19.050;2023-07-13T02:21:41;4.65;;;1.35;;
64936;SDS011;51452;47.698;19.050;2023-07-13T02:24:06;2.97;;;1.20;;
64936;SDS011;51452;47.698;19.050;2023-07-13T02:26:31;3.80;;;1.77;;
64936;SDS011;51452;47.698;19.050;2023-07-13T02:28:57;2.40;;;1.00;;
64936;SDS011;51452;47.698;19.050;2023-07-13T02:31:22;3.63;;;1.20;;
64936;SDS011;51452;47.698;19.050;2023-07-13T02:33:48;4.22;;;1.52;;
64936;SDS011;51452;47.698;19.050;2023-07-13T02:36:13;5.93;;;1.85;;
64936;SDS011;51452;47.698;19.050;2023-07-13T02:38:41;7.53;;;1.45;;
64936;SDS011;51452;47.698;19.050;2023-07-13T02:41:07;3.60;;;1.25;;
64936;SDS011;51452;47.698;19.050;2023-07-13T02:43:34;2.25;;;1.23;;
64936;SDS011;51452;47.698;19.050;2023-07-13T02:46:00;3.78;;;1.20;;
64936;SDS011;51452;47.698;19.050;2023-07-13T02:48:32;2.40;;;1.30;;
64936;SDS011;51452;47.698;19.050;2023-07-13T02:50:58;5.05;;;1.33;;
64936;SDS011;51452;47.698;19.050;2023-07-13T02:53:23;2.03;;;1.20;;
64936;SDS011;51452;47.698;19.050;2023-07-13T02:55:49;3.13;;;1.27;;
64936;SDS011;51452;47.698;19.050;2023-07-13T02:58:15;5.53;;;1.40;;
64936;SDS011;51452;47.698;19.050;2023-07-13T03:00:43;5.57;;;1.42;;
64936;SDS011;51452;47.698;19.050;2023-07-13T03:03:11;3.25;;;1.23;;
64936;SDS011;51452;47.698;19.050;2023-07-13T03:05:41;4.20;;;1.30;;
64936;SDS011;51452;47.698;19.050;2023-07-13T03:08:08;3.45;;;1.10;;
64936;SDS011;51452;47.698;19.050;2023-07-13T03:10:34;5.05;;;1.63;;
64936;SDS011;51452;47.698;19.050;2023-07-13T03:12:59;5.93;;;1.60;;
64936;SDS011;51452;47.698;19.050;2023-07-13T03:15:25;7.03;;;1.30;;
64936;SDS011;51452;47.698;19.050;2023-07-13T03:17:50;4.93;;;1.40;;
64936;SDS011;51452;47.698;19.050;2023-07-13T03:20:15;3.80;;;1.30;;
64936;SDS011;51452;47.698;19.050;2023-07-13T03:22:41;3.95;;;1.27;;
64936;SDS011;51452;47.698;19.050;2023-07-13T03:25:07;2.70;;;1.30;;
64936;SDS011;51452;47.698;19.050;2023-07-13T03:27:33;11.40;;;1.40;;
64936;SDS011;51452;47.698;19.050;2023-07-13T03:29:58;4.22;;;1.25;;
64936;SDS011;51452;47.698;19.050;2023-07-13T03:32:23;8.70;;;1.23;;
64936;SDS011;51452;47.698;19.050;2023-07-13T03:34:49;5.32;;;1.40;;
64936;SDS011;51452;47.698;19.050;2023-07-13T03:37:14;5.60;;;1.73;;
64936;SDS011;51452;47.698;19.050;2023-07-13T03:39:39;4.15;;;1.50;;
64936;SDS011;51452;47.698;19.050;2023-07-13T03:42:05;3.10;;;1.23;;
64936;SDS011;51452;47.698;19.050;2023-07-13T03:44:31;8.88;;;1.50;;
64936;SDS011;51452;47.698;19.050;2023-07-13T03:46:56;4.45;;;1.45;;
64936;SDS011;51452;47.698;19.050;2023-07-13T03:49:22;4.35;;;1.48;;
64936;SDS011;51452;47.698;19.050;2023-07-13T03:51:47;2.80;;;1.48;;
64936;SDS011;51452;47.698;19.050;2023-07-13T03:54:12;2.00;;;1.60;;
64936;SDS011;51452;47.698;19.050;2023-07-13T03:56:38;2.95;;;1.40;;
64936;SDS011;51452;47.698;19.050;2023-07-13T03:59:03;2.85;;;1.33;;
64936;SDS011;51452;47.698;19.050;2023-07-13T04:01:29;3.05;;;1.70;;
64936;SDS011;51452;47.698;19.050;2023-07-13T04:03:54;2.50;;;1.30;;
64936;SDS011;51452;47.698;19.050;2023-07-13T04:06:21;2.75;;;1.50;;
64936;SDS011;51452;47.698;19.050;2023-07-13T04:08:49;2.95;;;1.42;;
64936;SDS011;51452;47.698;19.050;2023-07-13T04:11:17;6.22;;;1.42;;
64936;SDS011;51452;47.698;19.050;2023-07-13T04:13:44;3.38;;;1.40;;
64936;SDS011;51452;47.698;19.050;2023-07-13T04:16:09;2.55;;;1.40;;
64936;SDS011;51452;47.698;19.050;2023-07-13T04:18:35;2.85;;;1.50;;
64936;SDS011;51452;47.698;19.050;2023-07-13T04:21:01;2.80;;;1.80;;
64936;SDS011;51452;47.698;19.050;2023-07-13T04:23:26;2.10;;;1.50;;
64936;SDS011;51452;47.698;19.050;2023-07-13T04:25:52;2.75;;;2.17;;
64936;SDS011;51452;47.698;19.050;2023-07-13T04:28:21;3.20;;;1.60;;
64936;SDS011;51452;47.698;19.050;2023-07-13T04:30:48;2.60;;;1.70;;
64936;SDS011;51452;47.698;19.050;2023-07-13T04:33:14;2.90;;;1.50;;
64936;SDS011;51452;47.698;19.050;2023-07-13T04:35:41;3.85;;;1.70;;
64936;SDS011;51452;47.698;19.050;2023-07-13T04:38:07;3.63;;;1.73;;
64936;SDS011;51452;47.698;19.050;2023-07-13T04:40:36;5.40;;;1.70;;
64936;SDS011;51452;47.698;19.050;2023-07-13T04:43:02;5.65;;;2.55;;
64936;SDS011;51452;47.698;19.050;2023-07-13T04:45:27;3.63;;;1.50;;
64936;SDS011;51452;47.698;19.050;2023-07-13T04:47:52;4.38;;;1.70;;
64936;SDS011;51452;47.698;19.050;2023-07-13T04:50:18;3.05;;;1.80;;
64936;SDS011;51452;47.698;19.050;2023-07-13T04:52:48;2.65;;;1.77;;
64936;SDS011;51452;47.698;19.050;2023-07-13T04:55:15;3.35;;;1.60;;
64936;SDS011;51452;47.698;19.050;2023-07-13T04:57:41;2.97;;;1.48;;
64936;SDS011;51452;47.698;19.050;2023-07-13T05:00:06;3.97;;;1.60;;
64936;SDS011;51452;47.698;19.050;2023-07-13T05:02:33;4.20;;;1.80;;
64936;SDS011;51452;47.698;19.050;2023-07-13T05:04:59;3.08;;;1.52;;
64936;SDS011;51452;47.698;19.050;2023-07-13T05:07:25;3.83;;;1.60;;
64936;SDS011;51452;47.698;19.050;2023-07-13T05:09:51;6.82;;;1.88;;
64936;SDS011;51452;47.698;19.050;2023-07-13T05:12:17;5.47;;;1.90;;
64936;SDS011;51452;47.698;19.050;2023-07-13T05:14:42;2.28;;;1.50;;
64936;SDS011;51452;47.698;19.050;2023-07-13T05:17:08;4.20;;;1.80;;
64936;SDS011;51452;47.698;19.050;2023-07-13T05:19:34;3.72;;;1.70;;
64936;SDS011;51452;47.698;19.050;2023-07-13T05:21:59;9.68;;;1.88;;
64936;SDS011;51452;47.698;19.050;2023-07-13T05:24:25;4.72;;;2.03;;
64936;SDS011;51452;47.698;19.050;2023-07-13T05:26:52;3.55;;;1.80;;
64936;SDS011;51452;47.698;19.050;2023-07-13T05:29:18;3.65;;;1.70;;
64936;SDS011;51452;47.698;19.050;2023-07-13T05:31:44;5.38;;;2.30;;
64936;SDS011;51452;47.698;19.050;2023-07-13T05:34:09;4.65;;;2.10;;
64936;SDS011;51452;47.698;19.050;2023-07-13T05:36:34;7.35;;;1.90;;
64936;SDS011;51452;47.698;19.050;2023-07-13T05:39:00;7.00;;;2.15;;
64936;SDS011;51452;47.698;19.050;2023-07-13T05:41:25;4.63;;;1.98;;
64936;SDS011;51452;47.698;19.050;2023-07-13T05:43:50;4.85;;;2.08;;
64936;SDS011;51452;47.698;19.050;2023-07-13T05:46:16;5.95;;;2.28;;
64936;SDS011;51452;47.698;19.050;2023-07-13T05:48:41;5.93;;;1.90;;
64936;SDS011;51452;47.698;19.050;2023-07-13T05:51:07;7.22;;;2.08;;
64936;SDS011;51452;47.698;19.050;2023-07-13T05:53:33;10.57;;;2.10;;
64936;SDS011;51452;47.698;19.050;2023-07-13T05:55:59;2.10;;;1.40;;
64936;SDS011;51452;47.698;19.050;2023-07-13T05:58:25;4.30;;;2.03;;
64936;SDS011;51452;47.698;19.050;2023-07-13T06:00:57;5.82;;;1.80;;
64936;SDS011;51452;47.698;19.050;2023-07-13T06:03:24;26.70;;;3.08;;
64936;SDS011;51452;47.698;19.050;2023-07-13T06:05:50;7.15;;;2.22;;
64936;SDS011;51452;47.698;19.050;2023-07-13T06:08:15;38.33;;;2.92;;
64936;SDS011;51452;47.698;19.050;2023-07-13T06:10:41;5.45;;;2.17;;
64936;SDS011;51452;47.698;19.050;2023-07-13T06:13:06;4.80;;;2.47;;
64936;SDS011;51452;47.698;19.050;2023-07-13T06:15:32;5.00;;;2.20;;
64936;SDS011;51452;47.698;19.050;2023-07-13T06:17:57;7.15;;;2.15;;
64936;SDS011;51452;47.698;19.050;2023-07-13T06:20:23;3.15;;;2.22;;
64936;SDS011;51452;47.698;19.050;2023-07-13T06:22:48;3.90;;;2.90;;
64936;SDS011;51452;47.698;19.050;2023-07-13T06:25:14;5.47;;;2.95;;
64936;SDS011;51452;47.698;19.050;2023-07-13T06:27:39;6.80;;;2.63;;
64936;SDS011;51452;47.698;19.050;2023-07-13T06:30:05;5.82;;;3.00;;
64936;SDS011;51452;47.698;19.050;2023-07-13T06:32:31;7.93;;;2.92;;
64936;SDS011;51452;47.698;19.050;2023-07-13T06:34:56;4.32;;;2.92;;
64936;SDS011;51452;47.698;19.050;2023-07-13T06:37:21;4.95;;;2.83;;
64936;SDS011;51452;47.698;19.050;2023-07-13T06:39:47;6.75;;;3.40;;
64936;SDS011;51452;47.698;19.050;2023-07-13T06:42:12;12.05;;;4.28;;
64936;SDS011;51452;47.698;19.050;2023-07-13T06:44:37;8.82;;;3.90;;
64936;SDS011;51452;47.698;19.050;2023-07-13T06:47:03;7.68;;;4.50;;
64936;SDS011;51452;47.698;19.050;2023-07-13T06:49:28;8.38;;;4.72;;
64936;SDS011;51452;47.698;19.050;2023-07-13T06:51:54;7.97;;;5.20;;
64936;SDS011;51452;47.698;19.050;2023-07-13T06:54:19;12.88;;;6.13;;
64936;SDS011;51452;47.698;19.050;2023-07-13T06:56:45;11.60;;;5.88;;
64936;SDS011;51452;47.698;19.050;2023-07-13T06:59:10;11.48;;;6.13;;
64936;SDS011;51452;47.698;19.050;2023-07-13T07:01:36;12.75;;;6.65;;
64936;SDS011;51452;47.698;19.050;2023-07-13T07:04:01;12.30;;;6.47;;
64936;SDS011;51452;47.698;19.050;2023-07-13T07:06:27;13.13;;;6.40;;
64936;SDS011;51452;47.698;19.050;2023-07-13T07:08:53;10.57;;;6.03;;
64936;SDS011;51452;47.698;19.050;2023-07-13T07:11:19;9.38;;;5.32;;
64936;SDS011;51452;47.698;19.050;2023-07-13T07:13:49;9.93;;;5.72;;
64936;SDS011;51452;47.698;19.050;2023-07-13T07:16:15;8.80;;;4.70;;
64936;SDS011;51452;47.698;19.050;2023-07-13T07:18:41;8.95;;;5.13;;
64936;SDS011;51452;47.698;19.050;2023-07-13T07:21:07;10.88;;;5.43;;
64936;SDS011;51452;47.698;19.050;2023-07-13T07:23:32;8.55;;;4.70;;
64936;SDS011;51452;47.698;19.050;2023-07-13T07:25:58;5.43;;;4.05;;
64936;SDS011;51452;47.698;19.050;2023-07-13T07:28:23;9.13;;;4.57;;
64936;SDS011;51452;47.698;19.050;2023-07-13T07:30:49;4.65;;;3.85;;
64936;SDS011;51452;47.698;19.050;2023-07-13T07:33:18;7.28;;;3.90;;
64936;SDS011;51452;47.698;19.050;2023-07-13T07:35:44;4.22;;;3.33;;
64936;SDS011;51452;47.698;19.050;2023-07-13T07:38:09;5.13;;;3.60;;
64936;SDS011;51452;47.698;19.050;2023-07-13T07:40:38;5.05;;;3.22;;
64936;SDS011;51452;47.698;19.050;2023-07-13T07:43:05;5.90;;;3.00;;
64936;SDS011;51452;47.698;19.050;2023-07-13T07:45:31;5.03;;;2.60;;
64936;SDS011;51452;47.698;19.050;2023-07-13T07:47:57;5.25;;;2.53;;
64936;SDS011;51452;47.698;19.050;2023-07-13T07:50:24;2.55;;;2.20;;
64936;SDS011;51452;47.698;19.050;2023-07-13T07:52:53;4.82;;;2.60;;
64936;SDS011;51452;47.698;19.050;2023-07-13T07:55:21;3.67;;;2.45;;
64936;SDS011;51452;47.698;19.050;2023-07-13T07:57:47;3.58;;;2.08;;
64936;SDS011;51452;47.698;19.050;2023-07-13T08:00:12;3.05;;;2.10;;
64936;SDS011;51452;47.698;19.050;2023-07-13T08:02:38;3.90;;;2.33;;
64936;SDS011;51452;47.698;19.050;2023-07-13T08:05:06;3.08;;;2.03;;
64936;SDS011;51452;47.698;19.050;2023-07-13T08:07:32;2.85;;;2.15;;
64936;SDS011;51452;47.698;19.050;2023-07-13T08:09:58;3.22;;;2.15;;
64936;SDS011;51452;47.698;19.050;2023-07-13T08:12:23;2.88;;;2.28;;
64936;SDS011;51452;47.698;19.050;2023-07-13T08:14:52;3.00;;;2.25;;
64936;SDS011;51452;47.698;19.050;2023-07-13T08:17:19;3.85;;;2.30;;
64936;SDS011;51452;47.698;19.050;2023-07-13T08:19:45;5.18;;;2.40;;
64936;SDS011;51452;47.698;19.050;2023-07-13T08:22:11;4.25;;;2.10;;
64936;SDS011;51452;47.698;19.050;2023-07-13T08:24:36;5.57;;;1.95;;
64936;SDS011;51452;47.698;19.050;2023-07-13T08:27:01;3.05;;;2.30;;
64936;SDS011;51452;47.698;19.050;2023-07-13T08:29:27;5.53;;;2.30;;
64936;SDS011;51452;47.698;19.050;2023-07-13T08:31:52;4.25;;;2.45;;
64936;SDS011;51452;47.698;19.050;2023-07-13T08:34:17;4.35;;;2.30;;
64936;SDS011;51452;47.698;19.050;2023-07-13T08:36:43;2.60;;;2.10;;
64936;SDS011;51452;47.698;19.050;2023-07-13T08:39:08;5.38;;;2.42;;
64936;SDS011;51452;47.698;19.050;2023-07-13T08:41:34;5.43;;;2.38;;
64936;SDS011;51452;47.698;19.050;2023-07-13T08:44:00;4.90;;;2.28;;
64936;SDS011;51452;47.698;19.050;2023-07-13T08:46:36;5.53;;;2.45;;
64936;SDS011;51452;47.698;19.050;2023-07-13T08:49:24;3.33;;;2.15;;
64936;SDS011;51452;47.698;19.050;2023-07-13T08:51:51;3.80;;;2.17;;
64936;SDS011;51452;47.698;19.050;2023-07-13T08:56:55;4.65;;;2.17;;
64936;SDS011;51452;47.698;19.050;2023-07-13T08:59:26;5.18;;;2.60;;
64936;SDS011;51452;47.698;19.050;2023-07-13T09:04:42;4.57;;;2.10;;
64936;SDS011;51452;47.698;19.050;2023-07-13T09:07:21;5.30;;;2.78;;
64936;SDS011;51452;47.698;19.050;2023-07-13T09:15:31;3.85;;;2.25;;
64936;SDS011;51452;47.698;19.050;2023-07-13T09:18:10;4.20;;;2.30;;
64936;SDS011;51452;47.698;19.050;2023-07-13T09:20:42;3.75;;;2.47;;
64936;SDS011;51452;47.698;19.050;2023-07-13T09:23:14;5.37;;;2.30;;
64936;SDS011;51452;47.698;19.050;2023-07-13T09:25:43;4.28;;;2.53;;
64936;SDS011;51452;47.698;19.050;2023-07-13T09:28:15;3.40;;;2.60;;
64936;SDS011;51452;47.698;19.050;2023-07-13T09:33:23;3.13;;;2.22;;
64936;SDS011;51452;47.698;19.050;2023-07-13T09:35:50;4.28;;;2.55;;
64936;SDS011;51452;47.698;19.050;2023-07-13T09:38:17;4.82;;;2.67;;
64936;SDS011;51452;47.698;19.050;2023-07-13T09:41:01;4.03;;;2.53;;
64936;SDS011;51452;47.698;19.050;2023-07-13T09:46:34;2.50;;;2.20;;
64936;SDS011;51452;47.698;19.050;2023-07-13T09:48:59;3.60;;;2.28;;
64936;SDS011;51452;47.698;19.050;2023-07-13T09:51:25;6.15;;;2.60;;
64936;SDS011;51452;47.698;19.050;2023-07-13T09:53:50;4.00;;;2.65;;
64936;SDS011;51452;47.698;19.050;2023-07-13T09:56:50;5.47;;;2.60;;
64936;SDS011;51452;47.698;19.050;2023-07-13T09:59:18;5.88;;;2.33;;
64936;SDS011;51452;47.698;19.050;2023-07-13T10:01:45;5.45;;;2.58;;
64936;SDS011;51452;47.698;19.050;2023-07-13T10:04:12;4.15;;;2.63;;
64936;SDS011;51452;47.698;19.050;2023-07-13T10:06:38;3.17;;;2.60;;
64936;SDS011;51452;47.698;19.050;2023-07-13T10:09:08;4.15;;;2.80;;
64936;SDS011;51452;47.698;19.050;2023-07-13T10:11:34;4.07;;;2.70;;
64936;SDS011;51452;47.698;19.050;2023-07-13T10:14:22;4.70;;;2.40;;
64936;SDS011;51452;47.698;19.050;2023-07-13T10:16:52;4.97;;;2.65;;
64936;SDS011;51452;47.698;19.050;2023-07-13T10:19:27;3.97;;;2.45;;
64936;SDS011;51452;47.698;19.050;2023-07-13T10:22:42;4.20;;;2.50;;
64936;SDS011;51452;47.698;19.050;2023-07-13T10:25:18;4.55;;;2.47;;
64936;SDS011;51452;47.698;19.050;2023-07-13T10:27:46;4.85;;;2.53;;
64936;SDS011;51452;47.698;19.050;2023-07-13T10:30:19;4.65;;;2.60;;
64936;SDS011;51452;47.698;19.050;2023-07-13T10:32:48;5.05;;;2.40;;
64936;SDS011;51452;47.698;19.050;2023-07-13T10:35:15;4.03;;;2.65;;
64936;SDS011;51452;47.698;19.050;2023-07-13T10:37:51;3.80;;;2.78;;
64936;SDS011;51452;47.698;19.050;2023-07-13T10:40:23;3.30;;;2.20;;
64936;SDS011;51452;47.698;19.050;2023-07-13T10:45:23;3.53;;;2.40;;
64936;SDS011;51452;47.698;19.050;2023-07-13T10:47:50;5.03;;;2.45;;
64936;SDS011;51452;47.698;19.050;2023-07-13T10:50:22;4.60;;;2.95;;
64936;SDS011;51452;47.698;19.050;2023-07-13T10:55:57;4.18;;;2.60;;
64936;SDS011;51452;47.698;19.050;2023-07-13T10:58:34;7.45;;;2.38;;
64936;SDS011;51452;47.698;19.050;2023-07-13T11:01:09;3.90;;;2.63;;
64936;SDS011;51452;47.698;19.050;2023-07-13T11:08:57;6.57;;;2.50;;
64936;SDS011;51452;47.698;19.050;2023-07-13T11:18:49;3.50;;;2.38;;
64936;SDS011;51452;47.698;19.050;2023-07-13T11:21:35;3.45;;;2.10;;
64936;SDS011;51452;47.698;19.050;2023-07-13T11:24:28;4.57;;;2.00;;
64936;SDS011;51452;47.698;19.050;2023-07-13T11:26:55;3.75;;;2.30;;
64936;SDS011;51452;47.698;19.050;2023-07-13T11:29:27;4.57;;;1.92;;
64936;SDS011;51452;47.698;19.050;2023-07-13T11:32:15;3.78;;;2.05;;
64936;SDS011;51452;47.698;19.050;2023-07-13T11:34:47;4.72;;;2.03;;
64936;SDS011;51452;47.698;19.050;2023-07-13T11:37:14;2.90;;;2.00;;
64936;SDS011;51452;47.698;19.050;2023-07-13T11:39:43;5.00;;;2.35;;
64936;SDS011;51452;47.698;19.050;2023-07-13T11:42:15;2.90;;;2.05;;
64936;SDS011;51452;47.698;19.050;2023-07-13T11:44:46;2.80;;;1.88;;
64936;SDS011;51452;47.698;19.050;2023-07-13T11:47:31;2.63;;;1.80;;
64936;SDS011;51452;47.698;19.050;2023-07-13T11:49:56;4.00;;;2.20;;
64936;SDS011;51452;47.698;19.050;2023-07-13T11:52:23;4.20;;;1.95;;
64936;SDS011;51452;47.698;19.050;2023-07-13T11:54:57;2.88;;;2.00;;
64936;SDS011;51452;47.698;19.050;2023-07-13T11:57:28;3.58;;;2.22;;
64936;SDS011;51452;47.698;19.050;2023-07-13T11:59:59;2.53;;;1.95;;
64936;SDS011;51452;47.698;19.050;2023-07-13T12:02:33;3.75;;;2.10;;
64936;SDS011;51452;47.698;19.050;2023-07-13T12:05:01;2.97;;;2.13;;
64936;SDS011;51452;47.698;19.050;2023-07-13T12:07:29;6.40;;;2.40;;
64936;SDS011;51452;47.698;19.050;2023-07-13T12:10:03;3.53;;;2.00;;
64936;SDS011;51452;47.698;19.050;2023-07-13T12:12:55;3.38;;;2.10;;
64936;SDS011;51452;47.698;19.050;2023-07-13T12:15:22;4.45;;;2.40;;
64936;SDS011;51452;47.698;19.050;2023-07-13T12:17:49;4.25;;;2.50;;
64936;SDS011;51452;47.698;19.050;2023-07-13T12:20:23;3.53;;;2.10;;
64936;SDS011;51452;47.698;19.050;2023-07-13T12:22:51;3.30;;;2.40;;
64936;SDS011;51452;47.698;19.050;2023-07-13T12:25:17;2.50;;;2.10;;
64936;SDS011;51452;47.698;19.050;2023-07-13T12:27:50;3.70;;;2.30;;
64936;SDS011;51452;47.698;19.050;2023-07-13T12:30:32;4.57;;;2.40;;
64936;SDS011;51452;47.698;19.050;2023-07-13T12:33:08;4.10;;;2.10;;
64936;SDS011;51452;47.698;19.050;2023-07-13T12:35:40;6.97;;;2.75;;
64936;SDS011;51452;47.698;19.050;2023-07-13T12:38:10;4.93;;;2.47;;
64936;SDS011;51452;47.698;19.050;2023-07-13T12:40:36;7.45;;;2.78;;
64936;SDS011;51452;47.698;19.050;2023-07-13T12:43:02;3.63;;;2.30;;
64936;SDS011;51452;47.698;19.050;2023-07-13T12:45:29;4.85;;;2.25;;
64936;SDS011;51452;47.698;19.050;2023-07-13T12:47:58;3.42;;;2.10;;
64936;SDS011;51452;47.698;19.050;2023-07-13T12:50:34;3.50;;;2.50;;
64936;SDS011;51452;47.698;19.050;2023-07-13T12:53:03;3.28;;;2.03;;
64936;SDS011;51452;47.698;19.050;2023-07-13T12:55:37;4.22;;;2.40;;
64936;SDS011;51452;47.698;19.050;2023-07-13T12:58:06;4.88;;;2.30;;
64936;SDS011;51452;47.698;19.050;2023-07-13T13:00:38;5.85;;;2.65;;
64936;SDS011;51452;47.698;19.050;2023-07-13T13:05:48;4.32;;;2.60;;
64936;SDS011;51452;47.698;19.050;2023-07-13T13:08:14;3.80;;;2.30;;
64936;SDS011;51452;47.698;19.050;2023-07-13T13:10:40;5.15;;;2.67;;
64936;SDS011;51452;47.698;19.050;2023-07-13T13:13:06;5.00;;;2.90;;
64936;SDS011;51452;47.698;19.050;2023-07-13T13:15:31;4.07;;;2.30;;
64936;SDS011;51452;47.698;19.050;2023-07-13T13:17:57;7.18;;;2.85;;
64936;SDS011;51452;47.698;19.050;2023-07-13T13:20:24;5.30;;;2.55;;
64936;SDS011;51452;47.698;19.050;2023-07-13T13:22:53;8.27;;;2.42;;
64936;SDS011;51452;47.698;19.050;2023-07-13T13:25:18;3.80;;;2.60;;
64936;SDS011;51452;47.698;19.050;2023-07-13T13:27:45;4.75;;;2.58;;
64936;SDS011;51452;47.698;19.050;2023-07-13T13:32:38;4.30;;;2.53;;
64936;SDS011;51452;47.698;19.050;2023-07-13T13:35:05;4.10;;;2.38;;
64936;SDS011;51452;47.698;19.050;2023-07-13T13:37:31;3.75;;;2.53;;
64936;SDS011;51452;47.698;19.050;2023-07-13T13:39:56;4.20;;;2.50;;
64936;SDS011;51452;47.698;19.050;2023-07-13T13:42:22;4.72;;;2.35;;
64936;SDS011;51452;47.698;19.050;2023-07-13T13:44:49;3.17;;;2.08;;
64936;SDS011;51452;47.698;19.050;2023-07-13T13:47:29;2.78;;;2.15;;
64936;SDS011;51452;47.698;19.050;2023-07-13T13:49:56;3.65;;;2.20;;
64936;SDS011;51452;47.698;19.050;2023-07-13T13:52:22;4.72;;;2.30;;
64936;SDS011;51452;47.698;19.050;2023-07-13T13:54:49;3.95;;;2.25;;
64936;SDS011;51452;47.698;19.050;2023-07-13T13:57:14;3.58;;;2.00;;
64936;SDS011;51452;47.698;19.050;2023-07-13T13:59:40;5.05;;;2.30;;
64936;SDS011;51452;47.698;19.050;2023-07-13T14:07:18;5.65;;;2.20;;
64936;SDS011;51452;47.698;19.050;2023-07-13T14:09:43;3.03;;;2.20;;
64936;SDS011;51452;47.698;19.050;2023-07-13T14:12:09;3.80;;;2.13;;
64936;SDS011;51452;47.698;19.050;2023-07-13T14:14:36;3.55;;;2.20;;
64936;SDS011;51452;47.698;19.050;2023-07-13T14:17:02;4.38;;;2.10;;
64936;SDS011;51452;47.698;19.050;2023-07-13T14:19:28;3.35;;;2.30;;
64936;SDS011;51452;47.698;19.050;2023-07-13T14:21:54;2.40;;;1.90;;
64936;SDS011;51452;47.698;19.050;2023-07-13T14:24:19;5.22;;;2.28;;
64936;SDS011;51452;47.698;19.050;2023-07-13T14:26:46;4.55;;;1.98;;
64936;SDS011;51452;47.698;19.050;2023-07-13T14:29:16;5.15;;;2.45;;
64936;SDS011;51452;47.698;19.050;2023-07-13T14:31:43;4.68;;;2.10;;
64936;SDS011;51452;47.698;19.050;2023-07-13T14:34:10;3.97;;;2.30;;
64936;SDS011;51452;47.698;19.050;2023-07-13T14:36:43;2.97;;;2.17;;
64936;SDS011;51452;47.698;19.050;2023-07-13T14:39:16;7.22;;;2.70;;
64936;SDS011;51452;47.698;19.050;2023-07-13T14:41:44;3.65;;;2.13;;
64936;SDS011;51452;47.698;19.050;2023-07-13T14:44:17;4.32;;;2.20;;
64936;SDS011;51452;47.698;19.050;2023-07-13T14:46:45;7.10;;;2.28;;
64936;SDS011;51452;47.698;19.050;2023-07-13T14:51:51;4.18;;;2.20;;
64936;SDS011;51452;47.698;19.050;2023-07-13T14:54:17;3.47;;;1.92;;
64936;SDS011;51452;47.698;19.050;2023-07-13T14:56:42;2.72;;;2.00;;
64936;SDS011;51452;47.698;19.050;2023-07-13T14:59:08;4.30;;;2.17;;
64936;SDS011;51452;47.698;19.050;2023-07-13T15:01:34;3.20;;;2.17;;
64936;SDS011;51452;47.698;19.050;2023-07-13T15:04:01;3.42;;;2.15;;
64936;SDS011;51452;47.698;19.050;2023-07-13T15:06:27;4.60;;;2.08;;
64936;SDS011;51452;47.698;19.050;2023-07-13T15:08:54;5.88;;;2.00;;
64936;SDS011;51452;47.698;19.050;2023-07-13T15:11:20;3.28;;;1.92;;
64936;SDS011;51452;47.698;19.050;2023-07-13T15:13:47;3.75;;;2.22;;
64936;SDS011;51452;47.698;19.050;2023-07-13T15:16:17;4.60;;;2.20;;
64936;SDS011;51452;47.698;19.050;2023-07-13T15:18:49;3.42;;;2.08;;
64936;SDS011;51452;47.698;19.050;2023-07-13T15:21:20;3.65;;;2.10;;
64936;SDS011;51452;47.698;19.050;2023-07-13T15:23:48;3.50;;;2.17;;
64936;SDS011;51452;47.698;19.050;2023-07-13T15:26:15;6.97;;;2.35;;
64936;SDS011;51452;47.698;19.050;2023-07-13T15:28:42;3.60;;;2.13;;
64936;SDS011;51452;47.698;19.050;2023-07-13T15:31:19;3.83;;;2.38;;